sensor_id;sensor_type;location;lat;lon;timestamp;P1;durP1;ratioP1;P2;durP2;ratioP2
18796;SDS011;9526;52.612;13.300;2023-06-24T00:02:27;14.02;;;7.70;;
18796;SDS011;9526;52.612;13.300;2023-06-24T00:04:51;12.50;;;7.72;;
18796;SDS011;9526;52.612;13.300;2023-06-24T00:07:14;10.02;;;6.85;;
18796;SDS011;9526;52.612;13.300;2023-06-24T00:09:38;11.32;;;7.32;;
18796;SDS011;9526;52.612;13.300;2023-06-24T00:12:04;11.98;;;8.00;;
18796;SDS011;9526;52.612;13.300;2023-06-24T00:14:29;13.00;;;7.97;;
18796;SDS011;9526;52.612;13.300;2023-06-24T00:16:54;15.43;;;8.60;;
18796;SDS011;9526;52.612;13.300;2023-06-24T00:19:18;16.88;;;9.25;;
18796;SDS011;9526;52.612;13.300;2023-06-24T00:21:42;17.38;;;7.93;;
18796;SDS011;9526;52.612;13.300;2023-06-24T00:24:06;12.90;;;8.65;;
18796;SDS011;9526;52.612;13.300;2023-06-24T00:26:30;12.98;;;8.82;;
18796;SDS011;9526;52.612;13.300;2023-06-24T00:28:56;19.05;;;9.32;;
18796;SDS011;9526;52.612;13.300;2023-06-24T00:31:20;16.67;;;9.85;;
18796;SDS011;9526;52.612;13.300;2023-06-24T00:33:44;15.88;;;9.57;;
18796;SDS011;9526;52.612;13.300;2023-06-24T00:36:08;15.43;;;10.13;;
18796;SDS011;9526;52.612;13.300;2023-06-24T00:38:33;15.02;;;10.02;;
18796;SDS011;9526;52.612;13.300;2023-06-24T00:40:57;16.55;;;9.98;;
18796;SDS011;9526;52.612;13.300;2023-06-24T00:43:21;16.17;;;10.27;;
18796;SDS011;9526;52.612;13.300;2023-06-24T00:45:46;15.48;;;10.27;;
18796;SDS011;9526;52.612;13.300;2023-06-24T00:48:10;21.00;;;10.88;;
18796;SDS011;9526;52.612;13.300;2023-06-24T00:50:34;18.33;;;10.23;;
18796;SDS011;9526;52.612;13.300;2023-06-24T00:52:58;15.48;;;10.07;;
18796;SDS011;9526;52.612;13.300;2023-06-24T00:55:22;17.00;;;10.77;;
18796;SDS011;9526;52.612;13.300;2023-06-24T00:57:50;15.27;;;9.75;;
18796;SDS011;9526;52.612;13.300;2023-06-24T01:00:16;16.42;;;10.45;;
18796;SDS011;9526;52.612;13.300;2023-06-24T01:02:43;13.48;;;9.20;;
18796;SDS011;9526;52.612;13.300;2023-06-24T01:05:07;14.70;;;10.25;;
18796;SDS011;9526;52.612;13.300;2023-06-24T01:07:32;15.85;;;10.07;;
18796;SDS011;9526;52.612;13.300;2023-06-24T01:09:57;18.35;;;11.20;;
18796;SDS011;9526;52.612;13.300;2023-06-24T01:12:22;18.20;;;11.55;;
18796;SDS011;9526;52.612;13.300;2023-06-24T01:14:46;18.13;;;11.07;;
18796;SDS011;9526;52.612;13.300;2023-06-24T01:17:12;20.55;;;10.68;;
18796;SDS011;9526;52.612;13.300;2023-06-24T01:19:49;16.27;;;10.57;;
18796;SDS011;9526;52.612;13.300;2023-06-24T01:25:46;17.95;;;11.25;;
18796;SDS011;9526;52.612;13.300;2023-06-24T01:28:41;17.40;;;10.82;;
18796;SDS011;9526;52.612;13.300;2023-06-24T01:31:32;18.83;;;11.00;;
18796;SDS011;9526;52.612;13.300;2023-06-24T01:34:02;18.13;;;10.88;;
18796;SDS011;9526;52.612;13.300;2023-06-24T01:36:38;20.77;;;11.45;;
18796;SDS011;9526;52.612;13.300;2023-06-24T01:39:08;19.83;;;11.45;;
18796;SDS011;9526;52.612;13.300;2023-06-24T01:41:36;17.70;;;10.73;;
18796;SDS011;9526;52.612;13.300;2023-06-24T01:44:04;17.08;;;11.07;;
18796;SDS011;9526;52.612;13.300;2023-06-24T01:46:29;18.67;;;10.82;;
18796;SDS011;9526;52.612;13.300;2023-06-24T01:48:55;17.13;;;10.50;;
18796;SDS011;9526;52.612;13.300;2023-06-24T01:51:24;18.00;;;10.98;;
18796;SDS011;9526;52.612;13.300;2023-06-24T01:53:50;17.02;;;11.32;;
18796;SDS011;9526;52.612;13.300;2023-06-24T01:56:17;14.55;;;10.00;;
18796;SDS011;9526;52.612;13.300;2023-06-24T01:58:45;17.10;;;10.45;;
18796;SDS011;9526;52.612;13.300;2023-06-24T02:01:10;18.90;;;10.43;;
18796;SDS011;9526;52.612;13.300;2023-06-24T02:03:37;19.92;;;10.50;;
18796;SDS011;9526;52.612;13.300;2023-06-24T02:06:03;17.30;;;10.70;;
18796;SDS011;9526;52.612;13.300;2023-06-24T02:08:31;17.63;;;10.98;;
18796;SDS011;9526;52.612;13.300;2023-06-24T02:10:57;19.23;;;11.32;;
18796;SDS011;9526;52.612;13.300;2023-06-24T02:13:22;22.52;;;11.32;;
18796;SDS011;9526;52.612;13.300;2023-06-24T02:15:47;16.33;;;11.38;;
18796;SDS011;9526;52.612;13.300;2023-06-24T02:18:12;15.07;;;10.52;;
18796;SDS011;9526;52.612;13.300;2023-06-24T02:20:40;19.60;;;10.80;;
18796;SDS011;9526;52.612;13.300;2023-06-24T02:23:05;15.50;;;11.27;;
18796;SDS011;9526;52.612;13.300;2023-06-24T02:25:31;14.90;;;9.88;;
18796;SDS011;9526;52.612;13.300;2023-06-24T02:27:56;17.23;;;11.18;;
18796;SDS011;9526;52.612;13.300;2023-06-24T02:30:21;18.65;;;11.18;;
18796;SDS011;9526;52.612;13.300;2023-06-24T02:32:46;17.55;;;9.90;;
18796;SDS011;9526;52.612;13.300;2023-06-24T02:35:10;15.90;;;10.38;;
18796;SDS011;9526;52.612;13.300;2023-06-24T02:37:36;15.77;;;9.85;;
18796;SDS011;9526;52.612;13.300;2023-06-24T02:40:00;16.17;;;10.20;;
18796;SDS011;9526;52.612;13.300;2023-06-24T02:42:26;14.07;;;10.10;;
18796;SDS011;9526;52.612;13.300;2023-06-24T02:44:50;14.02;;;10.00;;
18796;SDS011;9526;52.612;13.300;2023-06-24T02:47:14;15.00;;;10.20;;
18796;SDS011;9526;52.612;13.300;2023-06-24T02:49:39;16.00;;;9.68;;
18796;SDS011;9526;52.612;13.300;2023-06-24T02:52:05;17.88;;;11.15;;
18796;SDS011;9526;52.612;13.300;2023-06-24T02:54:31;15.80;;;9.70;;
18796;SDS011;9526;52.612;13.300;2023-06-24T02:57:25;14.20;;;9.45;;
18796;SDS011;9526;52.612;13.300;2023-06-24T03:00:13;16.80;;;8.55;;
18796;SDS011;9526;52.612;13.300;2023-06-24T03:03:10;15.18;;;9.80;;
18796;SDS011;9526;52.612;13.300;2023-06-24T03:05:42;14.40;;;9.27;;
18796;SDS011;9526;52.612;13.300;2023-06-24T03:08:10;15.02;;;9.75;;
18796;SDS011;9526;52.612;13.300;2023-06-24T03:10:37;15.80;;;9.63;;
18796;SDS011;9526;52.612;13.300;2023-06-24T03:13:06;17.25;;;9.90;;
18796;SDS011;9526;52.612;13.300;2023-06-24T03:15:37;15.98;;;9.27;;
18796;SDS011;9526;52.612;13.300;2023-06-24T03:18:00;14.75;;;9.60;;
18796;SDS011;9526;52.612;13.300;2023-06-24T03:20:24;23.17;;;9.25;;
18796;SDS011;9526;52.612;13.300;2023-06-24T03:22:50;14.75;;;8.73;;
18796;SDS011;9526;52.612;13.300;2023-06-24T03:25:16;18.15;;;9.90;;
18796;SDS011;9526;52.612;13.300;2023-06-24T03:27:43;15.60;;;9.07;;
18796;SDS011;9526;52.612;13.300;2023-06-24T03:30:07;12.27;;;8.45;;
18796;SDS011;9526;52.612;13.300;2023-06-24T03:32:38;13.80;;;9.07;;
18796;SDS011;9526;52.612;13.300;2023-06-24T03:35:02;17.13;;;9.63;;
18796;SDS011;9526;52.612;13.300;2023-06-24T03:37:28;17.52;;;9.45;;
18796;SDS011;9526;52.612;13.300;2023-06-24T03:39:52;15.25;;;9.93;;
18796;SDS011;9526;52.612;13.300;2023-06-24T03:42:16;16.48;;;9.32;;
18796;SDS011;9526;52.612;13.300;2023-06-24T03:44:41;21.90;;;9.68;;
18796;SDS011;9526;52.612;13.300;2023-06-24T03:47:05;14.13;;;9.02;;
18796;SDS011;9526;52.612;13.300;2023-06-24T03:49:29;20.42;;;9.68;;
18796;SDS011;9526;52.612;13.300;2023-06-24T03:51:54;21.92;;;10.00;;
18796;SDS011;9526;52.612;13.300;2023-06-24T03:54:18;16.83;;;10.57;;
18796;SDS011;9526;52.612;13.300;2023-06-24T03:56:43;14.35;;;9.45;;
18796;SDS011;9526;52.612;13.300;2023-06-24T03:59:06;17.98;;;9.77;;
18796;SDS011;9526;52.612;13.300;2023-06-24T04:01:32;14.32;;;9.95;;
18796;SDS011;9526;52.612;13.300;2023-06-24T04:03:55;16.25;;;9.07;;
18796;SDS011;9526;52.612;13.300;2023-06-24T04:06:19;14.00;;;9.23;;
18796;SDS011;9526;52.612;13.300;2023-06-24T04:08:43;16.05;;;10.07;;
18796;SDS011;9526;52.612;13.300;2023-06-24T04:11:10;15.27;;;9.85;;
18796;SDS011;9526;52.612;13.300;2023-06-24T04:13:34;16.20;;;9.45;;
18796;SDS011;9526;52.612;13.300;2023-06-24T04:15:58;17.88;;;10.02;;
18796;SDS011;9526;52.612;13.300;2023-06-24T04:18:23;15.45;;;10.20;;
18796;SDS011;9526;52.612;13.300;2023-06-24T04:20:48;15.85;;;9.73;;
18796;SDS011;9526;52.612;13.300;2023-06-24T04:23:12;16.10;;;9.40;;
18796;SDS011;9526;52.612;13.300;2023-06-24T04:25:36;19.05;;;9.93;;
18796;SDS011;9526;52.612;13.300;2023-06-24T04:27:59;14.30;;;9.32;;
18796;SDS011;9526;52.612;13.300;2023-06-24T04:30:23;15.32;;;9.40;;
18796;SDS011;9526;52.612;13.300;2023-06-24T04:32:47;14.43;;;9.27;;
18796;SDS011;9526;52.612;13.300;2023-06-24T04:35:13;17.35;;;9.82;;
18796;SDS011;9526;52.612;13.300;2023-06-24T04:37:36;16.23;;;9.38;;
18796;SDS011;9526;52.612;13.300;2023-06-24T04:40:00;16.42;;;9.70;;
18796;SDS011;9526;52.612;13.300;2023-06-24T04:42:25;15.48;;;9.60;;
18796;SDS011;9526;52.612;13.300;2023-06-24T04:44:49;16.90;;;9.52;;
18796;SDS011;9526;52.612;13.300;2023-06-24T04:47:13;16.58;;;10.43;;
18796;SDS011;9526;52.612;13.300;2023-06-24T04:49:37;16.95;;;10.30;;
18796;SDS011;9526;52.612;13.300;2023-06-24T04:52:02;16.58;;;9.48;;
18796;SDS011;9526;52.612;13.300;2023-06-24T04:54:27;17.23;;;9.52;;
18796;SDS011;9526;52.612;13.300;2023-06-24T04:56:50;16.38;;;9.85;;
18796;SDS011;9526;52.612;13.300;2023-06-24T04:59:16;16.50;;;9.90;;
18796;SDS011;9526;52.612;13.300;2023-06-24T05:01:40;16.42;;;10.65;;
18796;SDS011;9526;52.612;13.300;2023-06-24T05:04:04;16.73;;;10.55;;
18796;SDS011;9526;52.612;13.300;2023-06-24T05:06:27;17.67;;;10.10;;
18796;SDS011;9526;52.612;13.300;2023-06-24T05:08:52;18.25;;;10.45;;
18796;SDS011;9526;52.612;13.300;2023-06-24T05:11:16;20.23;;;10.45;;
18796;SDS011;9526;52.612;13.300;2023-06-24T05:13:40;17.25;;;10.00;;
18796;SDS011;9526;52.612;13.300;2023-06-24T05:16:04;16.80;;;10.07;;
18796;SDS011;9526;52.612;13.300;2023-06-24T05:18:28;16.20;;;10.07;;
18796;SDS011;9526;52.612;13.300;2023-06-24T05:20:52;22.20;;;10.70;;
18796;SDS011;9526;52.612;13.300;2023-06-24T05:23:15;16.88;;;9.75;;
18796;SDS011;9526;52.612;13.300;2023-06-24T05:25:40;21.42;;;11.02;;
18796;SDS011;9526;52.612;13.300;2023-06-24T05:28:04;15.15;;;9.43;;
18796;SDS011;9526;52.612;13.300;2023-06-24T05:30:28;16.25;;;9.93;;
18796;SDS011;9526;52.612;13.300;2023-06-24T05:32:52;16.33;;;8.75;;
18796;SDS011;9526;52.612;13.300;2023-06-24T05:35:15;13.95;;;8.73;;
18796;SDS011;9526;52.612;13.300;2023-06-24T05:37:39;18.35;;;9.55;;
18796;SDS011;9526;52.612;13.300;2023-06-24T05:40:04;15.48;;;9.40;;
18796;SDS011;9526;52.612;13.300;2023-06-24T05:42:30;19.23;;;9.38;;
18796;SDS011;9526;52.612;13.300;2023-06-24T05:44:55;15.30;;;9.20;;
18796;SDS011;9526;52.612;13.300;2023-06-24T05:47:19;17.38;;;9.57;;
18796;SDS011;9526;52.612;13.300;2023-06-24T05:49:42;15.93;;;10.15;;
18796;SDS011;9526;52.612;13.300;2023-06-24T05:52:06;15.35;;;10.18;;
18796;SDS011;9526;52.612;13.300;2023-06-24T05:54:30;15.55;;;9.85;;
18796;SDS011;9526;52.612;13.300;2023-06-24T05:56:54;16.70;;;9.40;;
18796;SDS011;9526;52.612;13.300;2023-06-24T05:59:19;14.25;;;8.35;;
18796;SDS011;9526;52.612;13.300;2023-06-24T06:01:43;16.58;;;9.80;;
18796;SDS011;9526;52.612;13.300;2023-06-24T06:04:06;16.77;;;9.40;;
18796;SDS011;9526;52.612;13.300;2023-06-24T06:06:30;13.80;;;9.40;;
18796;SDS011;9526;52.612;13.300;2023-06-24T06:08:56;14.40;;;8.57;;
18796;SDS011;9526;52.612;13.300;2023-06-24T06:11:20;13.98;;;8.20;;
18796;SDS011;9526;52.612;13.300;2023-06-24T06:13:43;12.73;;;7.40;;
18796;SDS011;9526;52.612;13.300;2023-06-24T06:16:08;15.02;;;7.55;;
18796;SDS011;9526;52.612;13.300;2023-06-24T06:18:32;11.45;;;7.50;;
18796;SDS011;9526;52.612;13.300;2023-06-24T06:20:56;12.30;;;7.45;;
18796;SDS011;9526;52.612;13.300;2023-06-24T06:23:20;12.55;;;7.82;;
18796;SDS011;9526;52.612;13.300;2023-06-24T06:25:43;11.90;;;7.35;;
18796;SDS011;9526;52.612;13.300;2023-06-24T06:28:09;11.23;;;7.35;;
18796;SDS011;9526;52.612;13.300;2023-06-24T06:30:33;13.95;;;7.05;;
18796;SDS011;9526;52.612;13.300;2023-06-24T06:32:58;11.85;;;7.07;;
18796;SDS011;9526;52.612;13.300;2023-06-24T06:35:22;15.10;;;8.10;;
18796;SDS011;9526;52.612;13.300;2023-06-24T06:37:46;9.30;;;6.75;;
18796;SDS011;9526;52.612;13.300;2023-06-24T06:40:17;12.45;;;6.85;;
18796;SDS011;9526;52.612;13.300;2023-06-24T06:42:41;13.70;;;7.13;;
18796;SDS011;9526;52.612;13.300;2023-06-24T06:45:05;11.52;;;6.72;;
18796;SDS011;9526;52.612;13.300;2023-06-24T06:47:30;10.98;;;6.40;;
18796;SDS011;9526;52.612;13.300;2023-06-24T06:49:55;9.90;;;6.28;;
18796;SDS011;9526;52.612;13.300;2023-06-24T06:52:19;13.15;;;6.63;;
18796;SDS011;9526;52.612;13.300;2023-06-24T06:54:42;13.50;;;6.40;;
18796;SDS011;9526;52.612;13.300;2023-06-24T06:57:06;11.88;;;6.90;;
18796;SDS011;9526;52.612;13.300;2023-06-24T06:59:30;13.05;;;6.38;;
18796;SDS011;9526;52.612;13.300;2023-06-24T07:01:54;10.57;;;6.30;;
18796;SDS011;9526;52.612;13.300;2023-06-24T07:04:18;9.63;;;5.25;;
18796;SDS011;9526;52.612;13.300;2023-06-24T07:06:44;9.38;;;5.45;;
18796;SDS011;9526;52.612;13.300;2023-06-24T07:09:08;8.27;;;5.30;;
18796;SDS011;9526;52.612;13.300;2023-06-24T07:11:32;8.73;;;5.05;;
18796;SDS011;9526;52.612;13.300;2023-06-24T07:13:56;7.63;;;4.68;;
18796;SDS011;9526;52.612;13.300;2023-06-24T07:16:19;8.48;;;4.63;;
18796;SDS011;9526;52.612;13.300;2023-06-24T07:18:43;10.43;;;5.55;;
18796;SDS011;9526;52.612;13.300;2023-06-24T07:21:07;9.60;;;4.85;;
18796;SDS011;9526;52.612;13.300;2023-06-24T07:23:32;6.47;;;4.30;;
18796;SDS011;9526;52.612;13.300;2023-06-24T07:25:56;5.80;;;4.60;;
18796;SDS011;9526;52.612;13.300;2023-06-24T07:28:24;6.88;;;4.57;;
18796;SDS011;9526;52.612;13.300;2023-06-24T07:30:48;7.40;;;4.30;;
18796;SDS011;9526;52.612;13.300;2023-06-24T07:33:11;6.18;;;4.47;;
18796;SDS011;9526;52.612;13.300;2023-06-24T07:35:35;7.35;;;4.53;;
18796;SDS011;9526;52.612;13.300;2023-06-24T07:37:59;8.18;;;4.38;;
18796;SDS011;9526;52.612;13.300;2023-06-24T07:40:25;6.25;;;4.30;;
18796;SDS011;9526;52.612;13.300;2023-06-24T07:42:48;6.55;;;4.10;;
18796;SDS011;9526;52.612;13.300;2023-06-24T07:45:12;6.15;;;4.20;;
18796;SDS011;9526;52.612;13.300;2023-06-24T07:47:36;6.22;;;4.15;;
18796;SDS011;9526;52.612;13.300;2023-06-24T07:49:59;6.03;;;4.03;;
18796;SDS011;9526;52.612;13.300;2023-06-24T07:52:23;4.80;;;4.13;;
18796;SDS011;9526;52.612;13.300;2023-06-24T07:54:47;6.00;;;4.68;;
18796;SDS011;9526;52.612;13.300;2023-06-24T07:57:12;6.00;;;4.55;;
18796;SDS011;9526;52.612;13.300;2023-06-24T07:59:36;5.72;;;4.30;;
18796;SDS011;9526;52.612;13.300;2023-06-24T08:02:00;6.20;;;4.10;;
18796;SDS011;9526;52.612;13.300;2023-06-24T08:04:23;5.60;;;4.15;;
18796;SDS011;9526;52.612;13.300;2023-06-24T08:06:47;6.68;;;4.50;;
18796;SDS011;9526;52.612;13.300;2023-06-24T08:09:11;8.30;;;4.68;;
18796;SDS011;9526;52.612;13.300;2023-06-24T08:11:35;5.45;;;4.30;;
18796;SDS011;9526;52.612;13.300;2023-06-24T08:14:00;5.68;;;4.40;;
18796;SDS011;9526;52.612;13.300;2023-06-24T08:16:25;5.90;;;4.35;;
18796;SDS011;9526;52.612;13.300;2023-06-24T08:18:49;10.15;;;5.30;;
18796;SDS011;9526;52.612;13.300;2023-06-24T08:21:13;6.60;;;4.40;;
18796;SDS011;9526;52.612;13.300;2023-06-24T08:23:36;6.50;;;4.32;;
18796;SDS011;9526;52.612;13.300;2023-06-24T08:26:00;6.32;;;4.22;;
18796;SDS011;9526;52.612;13.300;2023-06-24T08:28:37;6.10;;;4.32;;
18796;SDS011;9526;52.612;13.300;2023-06-24T08:31:02;6.80;;;4.55;;
18796;SDS011;9526;52.612;13.300;2023-06-24T08:33:26;7.20;;;4.63;;
18796;SDS011;9526;52.612;13.300;2023-06-24T08:35:50;5.88;;;4.32;;
18796;SDS011;9526;52.612;13.300;2023-06-24T08:38:13;5.63;;;4.32;;
18796;SDS011;9526;52.612;13.300;2023-06-24T08:40:37;6.68;;;4.40;;
18796;SDS011;9526;52.612;13.300;2023-06-24T08:43:02;5.22;;;4.15;;
18796;SDS011;9526;52.612;13.300;2023-06-24T08:45:26;6.55;;;4.70;;
18796;SDS011;9526;52.612;13.300;2023-06-24T08:47:51;6.68;;;4.60;;
18796;SDS011;9526;52.612;13.300;2023-06-24T08:50:17;5.90;;;4.28;;
18796;SDS011;9526;52.612;13.300;2023-06-24T08:52:43;6.55;;;4.38;;
18796;SDS011;9526;52.612;13.300;2023-06-24T08:55:13;6.30;;;4.70;;
18796;SDS011;9526;52.612;13.300;2023-06-24T08:57:44;6.28;;;4.38;;
18796;SDS011;9526;52.612;13.300;2023-06-24T09:00:07;10.95;;;5.32;;
18796;SDS011;9526;52.612;13.300;2023-06-24T09:02:32;6.20;;;4.25;;
18796;SDS011;9526;52.612;13.300;2023-06-24T09:05:00;6.78;;;4.20;;
18796;SDS011;9526;52.612;13.300;2023-06-24T09:07:25;5.97;;;4.32;;
18796;SDS011;9526;52.612;13.300;2023-06-24T09:09:50;5.40;;;4.38;;
18796;SDS011;9526;52.612;13.300;2023-06-24T09:12:14;6.95;;;4.90;;
18796;SDS011;9526;52.612;13.300;2023-06-24T09:14:38;5.78;;;4.18;;
18796;SDS011;9526;52.612;13.300;2023-06-24T09:17:02;5.88;;;4.30;;
18796;SDS011;9526;52.612;13.300;2023-06-24T09:19:26;7.53;;;4.40;;
18796;SDS011;9526;52.612;13.300;2023-06-24T09:21:53;6.40;;;4.55;;
18796;SDS011;9526;52.612;13.300;2023-06-24T09:24:16;7.00;;;4.30;;
18796;SDS011;9526;52.612;13.300;2023-06-24T09:26:42;7.03;;;4.15;;
18796;SDS011;9526;52.612;13.300;2023-06-24T09:29:07;6.90;;;4.22;;
18796;SDS011;9526;52.612;13.300;2023-06-24T09:31:31;6.35;;;4.00;;
18796;SDS011;9526;52.612;13.300;2023-06-24T09:33:56;6.75;;;4.25;;
18796;SDS011;9526;52.612;13.300;2023-06-24T09:36:20;4.75;;;3.60;;
18796;SDS011;9526;52.612;13.300;2023-06-24T09:38:47;5.75;;;3.83;;
18796;SDS011;9526;52.612;13.300;2023-06-24T09:41:11;6.25;;;3.80;;
18796;SDS011;9526;52.612;13.300;2023-06-24T09:43:36;7.75;;;3.88;;
18796;SDS011;9526;52.612;13.300;2023-06-24T09:46:02;6.53;;;3.80;;
18796;SDS011;9526;52.612;13.300;2023-06-24T09:48:26;4.40;;;3.45;;
18796;SDS011;9526;52.612;13.300;2023-06-24T09:50:50;5.00;;;3.92;;
18796;SDS011;9526;52.612;13.300;2023-06-24T09:53:16;5.00;;;3.53;;
18796;SDS011;9526;52.612;13.300;2023-06-24T09:55:42;5.25;;;3.90;;
18796;SDS011;9526;52.612;13.300;2023-06-24T09:58:08;6.85;;;4.07;;
18796;SDS011;9526;52.612;13.300;2023-06-24T10:00:33;6.75;;;4.10;;
18796;SDS011;9526;52.612;13.300;2023-06-24T10:02:58;5.65;;;4.10;;
18796;SDS011;9526;52.612;13.300;2023-06-24T10:05:22;5.15;;;3.67;;
18796;SDS011;9526;52.612;13.300;2023-06-24T10:07:45;4.15;;;3.30;;
18796;SDS011;9526;52.612;13.300;2023-06-24T10:10:10;6.68;;;3.85;;
18796;SDS011;9526;52.612;13.300;2023-06-24T10:12:35;5.25;;;3.63;;
18796;SDS011;9526;52.612;13.300;2023-06-24T10:14:59;5.60;;;3.85;;
18796;SDS011;9526;52.612;13.300;2023-06-24T10:17:23;5.30;;;3.60;;
18796;SDS011;9526;52.612;13.300;2023-06-24T10:19:47;6.40;;;3.90;;
18796;SDS011;9526;52.612;13.300;2023-06-24T10:22:14;5.93;;;3.50;;
18796;SDS011;9526;52.612;13.300;2023-06-24T10:24:39;4.93;;;3.72;;
18796;SDS011;9526;52.612;13.300;2023-06-24T10:27:07;4.10;;;2.92;;
18796;SDS011;9526;52.612;13.300;2023-06-24T10:29:37;4.15;;;3.70;;
18796;SDS011;9526;52.612;13.300;2023-06-24T10:32:04;8.63;;;3.85;;
18796;SDS011;9526;52.612;13.300;2023-06-24T10:34:33;4.88;;;3.70;;
18796;SDS011;9526;52.612;13.300;2023-06-24T10:37:03;7.10;;;3.92;;
18796;SDS011;9526;52.612;13.300;2023-06-24T10:39:38;4.03;;;3.17;;
18796;SDS011;9526;52.612;13.300;2023-06-24T10:42:25;7.15;;;3.53;;
18796;SDS011;9526;52.612;13.300;2023-06-24T10:45:15;6.50;;;3.40;;
18796;SDS011;9526;52.612;13.300;2023-06-24T10:47:42;6.68;;;3.72;;
18796;SDS011;9526;52.612;13.300;2023-06-24T10:50:08;4.80;;;3.50;;
18796;SDS011;9526;52.612;13.300;2023-06-24T10:52:37;4.88;;;3.38;;
18796;SDS011;9526;52.612;13.300;2023-06-24T10:55:01;5.25;;;3.80;;
18796;SDS011;9526;52.612;13.300;2023-06-24T10:57:28;4.72;;;3.30;;
18796;SDS011;9526;52.612;13.300;2023-06-24T10:59:52;4.78;;;3.40;;
18796;SDS011;9526;52.612;13.300;2023-06-24T11:02:20;5.18;;;3.58;;
18796;SDS011;9526;52.612;13.300;2023-06-24T11:04:47;3.22;;;2.75;;
18796;SDS011;9526;52.612;13.300;2023-06-24T11:07:13;3.20;;;2.53;;
18796;SDS011;9526;52.612;13.300;2023-06-24T11:09:37;4.80;;;2.83;;
18796;SDS011;9526;52.612;13.300;2023-06-24T11:12:03;3.72;;;2.70;;
18796;SDS011;9526;52.612;13.300;2023-06-24T11:14:28;7.35;;;3.15;;
18796;SDS011;9526;52.612;13.300;2023-06-24T11:16:52;4.88;;;3.45;;
18796;SDS011;9526;52.612;13.300;2023-06-24T11:19:17;4.55;;;3.10;;
18796;SDS011;9526;52.612;13.300;2023-06-24T11:21:40;4.10;;;2.85;;
18796;SDS011;9526;52.612;13.300;2023-06-24T11:24:05;4.20;;;2.80;;
18796;SDS011;9526;52.612;13.300;2023-06-24T11:26:30;6.28;;;3.10;;
18796;SDS011;9526;52.612;13.300;2023-06-24T11:28:54;4.50;;;2.85;;
18796;SDS011;9526;52.612;13.300;2023-06-24T11:31:18;4.70;;;2.80;;
18796;SDS011;9526;52.612;13.300;2023-06-24T11:33:42;4.15;;;3.03;;
18796;SDS011;9526;52.612;13.300;2023-06-24T11:36:10;4.30;;;3.10;;
18796;SDS011;9526;52.612;13.300;2023-06-24T11:38:33;3.60;;;2.88;;
18796;SDS011;9526;52.612;13.300;2023-06-24T11:40:59;5.38;;;3.10;;
18796;SDS011;9526;52.612;13.300;2023-06-24T11:43:25;3.53;;;3.05;;
18796;SDS011;9526;52.612;13.300;2023-06-24T11:45:49;5.32;;;2.83;;
18796;SDS011;9526;52.612;13.300;2023-06-24T11:48:12;3.80;;;2.83;;
18796;SDS011;9526;52.612;13.300;2023-06-24T11:50:36;4.22;;;3.10;;
18796;SDS011;9526;52.612;13.300;2023-06-24T11:53:01;3.42;;;3.00;;
18796;SDS011;9526;52.612;13.300;2023-06-24T11:55:26;4.18;;;3.10;;
18796;SDS011;9526;52.612;13.300;2023-06-24T11:57:51;3.88;;;2.85;;
18796;SDS011;9526;52.612;13.300;2023-06-24T12:00:19;4.97;;;2.88;;
18796;SDS011;9526;52.612;13.300;2023-06-24T12:02:45;4.22;;;2.50;;
18796;SDS011;9526;52.612;13.300;2023-06-24T12:05:09;3.30;;;2.60;;
18796;SDS011;9526;52.612;13.300;2023-06-24T12:07:32;3.13;;;2.47;;
18796;SDS011;9526;52.612;13.300;2023-06-24T12:09:58;3.63;;;2.75;;
18796;SDS011;9526;52.612;13.300;2023-06-24T12:12:22;4.95;;;2.72;;
18796;SDS011;9526;52.612;13.300;2023-06-24T12:14:45;3.50;;;2.60;;
18796;SDS011;9526;52.612;13.300;2023-06-24T12:17:09;3.95;;;2.97;;
18796;SDS011;9526;52.612;13.300;2023-06-24T12:19:33;4.38;;;3.00;;
18796;SDS011;9526;52.612;13.300;2023-06-24T12:21:56;3.90;;;3.10;;
18796;SDS011;9526;52.612;13.300;2023-06-24T12:24:20;5.57;;;3.08;;
18796;SDS011;9526;52.612;13.300;2023-06-24T12:26:45;4.00;;;3.08;;
18796;SDS011;9526;52.612;13.300;2023-06-24T12:29:10;4.25;;;3.10;;
18796;SDS011;9526;52.612;13.300;2023-06-24T12:31:34;4.05;;;3.05;;
18796;SDS011;9526;52.612;13.300;2023-06-24T12:33:58;3.92;;;3.20;;
18796;SDS011;9526;52.612;13.300;2023-06-24T12:36:21;3.75;;;2.90;;
18796;SDS011;9526;52.612;13.300;2023-06-24T12:38:45;3.30;;;3.00;;
18796;SDS011;9526;52.612;13.300;2023-06-24T12:41:09;5.18;;;3.15;;
18796;SDS011;9526;52.612;13.300;2023-06-24T12:43:34;3.00;;;2.70;;
18796;SDS011;9526;52.612;13.300;2023-06-24T12:45:58;8.43;;;2.95;;
18796;SDS011;9526;52.612;13.300;2023-06-24T12:48:21;4.15;;;3.03;;
18796;SDS011;9526;52.612;13.300;2023-06-24T12:50:45;3.17;;;2.88;;
18796;SDS011;9526;52.612;13.300;2023-06-24T12:53:14;4.07;;;2.80;;
18796;SDS011;9526;52.612;13.300;2023-06-24T12:55:38;3.10;;;2.78;;
18796;SDS011;9526;52.612;13.300;2023-06-24T12:58:01;3.65;;;3.00;;
18796;SDS011;9526;52.612;13.300;2023-06-24T13:00:26;4.97;;;3.10;;
18796;SDS011;9526;52.612;13.300;2023-06-24T13:02:50;3.63;;;2.90;;
18796;SDS011;9526;52.612;13.300;2023-06-24T13:05:14;5.25;;;3.45;;
18796;SDS011;9526;52.612;13.300;2023-06-24T13:07:38;4.72;;;2.67;;
18796;SDS011;9526;52.612;13.300;2023-06-24T13:10:02;3.83;;;3.00;;
18796;SDS011;9526;52.612;13.300;2023-06-24T13:12:27;4.22;;;3.15;;
18796;SDS011;9526;52.612;13.300;2023-06-24T13:14:51;3.53;;;2.70;;
18796;SDS011;9526;52.612;13.300;2023-06-24T13:17:16;4.15;;;3.30;;
18796;SDS011;9526;52.612;13.300;2023-06-24T13:19:40;4.68;;;2.85;;
18796;SDS011;9526;52.612;13.300;2023-06-24T13:22:04;3.70;;;2.80;;
18796;SDS011;9526;52.612;13.300;2023-06-24T13:24:28;3.67;;;3.00;;
18796;SDS011;9526;52.612;13.300;2023-06-24T13:26:52;3.63;;;3.00;;
18796;SDS011;9526;52.612;13.300;2023-06-24T13:29:15;3.33;;;2.90;;
18796;SDS011;9526;52.612;13.300;2023-06-24T13:31:41;3.65;;;2.90;;
18796;SDS011;9526;52.612;13.300;2023-06-24T13:34:06;3.25;;;2.72;;
18796;SDS011;9526;52.612;13.300;2023-06-24T13:36:31;3.60;;;2.90;;
18796;SDS011;9526;52.612;13.300;2023-06-24T13:38:57;3.55;;;2.90;;
18796;SDS011;9526;52.612;13.300;2023-06-24T13:41:21;7.93;;;3.22;;
18796;SDS011;9526;52.612;13.300;2023-06-24T13:43:45;4.45;;;2.80;;
18796;SDS011;9526;52.612;13.300;2023-06-24T13:46:09;3.85;;;2.65;;
18796;SDS011;9526;52.612;13.300;2023-06-24T13:48:32;3.00;;;2.70;;
18796;SDS011;9526;52.612;13.300;2023-06-24T13:50:57;2.90;;;2.60;;
18796;SDS011;9526;52.612;13.300;2023-06-24T13:53:21;5.97;;;2.97;;
18796;SDS011;9526;52.612;13.300;2023-06-24T13:55:45;3.75;;;2.97;;
18796;SDS011;9526;52.612;13.300;2023-06-24T13:58:08;7.68;;;3.03;;
18796;SDS011;9526;52.612;13.300;2023-06-24T14:00:32;4.22;;;3.53;;
18796;SDS011;9526;52.612;13.300;2023-06-24T14:02:56;4.55;;;3.65;;
18796;SDS011;9526;52.612;13.300;2023-06-24T14:05:20;3.80;;;3.00;;
18796;SDS011;9526;52.612;13.300;2023-06-24T14:07:45;3.92;;;3.15;;
18796;SDS011;9526;52.612;13.300;2023-06-24T14:10:09;4.13;;;3.15;;
18796;SDS011;9526;52.612;13.300;2023-06-24T14:12:33;6.43;;;2.70;;
18796;SDS011;9526;52.612;13.300;2023-06-24T14:14:57;4.82;;;3.20;;
18796;SDS011;9526;52.612;13.300;2023-06-24T14:17:21;3.28;;;2.97;;
18796;SDS011;9526;52.612;13.300;2023-06-24T14:19:45;3.92;;;3.25;;
18796;SDS011;9526;52.612;13.300;2023-06-24T14:22:09;5.10;;;3.15;;
18796;SDS011;9526;52.612;13.300;2023-06-24T14:24:35;3.60;;;3.17;;
18796;SDS011;9526;52.612;13.300;2023-06-24T14:27:00;4.55;;;3.30;;
18796;SDS011;9526;52.612;13.300;2023-06-24T14:29:24;4.35;;;3.25;;
18796;SDS011;9526;52.612;13.300;2023-06-24T14:31:47;3.83;;;3.20;;